createdAt,value
2019-03-20T00:00:11.409Z,64.52
2019-03-20T00:04:17.891Z,64.49
2019-03-20T00:08:22.787Z,64.82
2019-03-20T00:12:27.677Z,64.57
2019-03-20T00:16:32.566Z,64.26
2019-03-20T00:20:37.465Z,64.14
2019-03-20T00:24:42.351Z,64.05
2019-03-20T00:28:47.242Z,63.92
2019-03-20T00:32:52.132Z,63.33
2019-03-20T00:36:58.189Z,63.84
2019-03-20T00:41:03.087Z,64.61
2019-03-20T00:45:11.016Z,64.78
2019-03-20T00:49:15.906Z,65.27
2019-03-20T00:53:20.801Z,65.54
2019-03-20T00:57:25.687Z,65.07
2019-03-20T01:01:30.579Z,65.56
2019-03-20T01:05:35.528Z,65.33
2019-03-20T01:09:40.417Z,65.69
2019-03-20T01:13:46.273Z,65.61
2019-03-20T01:17:51.163Z,65.55
2019-03-20T01:21:56.052Z,65.65
2019-03-20T01:26:00.928Z,65.87
2019-03-20T01:30:08.927Z,65.59
2019-03-20T01:34:13.817Z,64.81
2019-03-20T01:38:18.710Z,65.15
2019-03-20T01:42:23.595Z,65.38
2019-03-20T01:46:28.477Z,65.19
2019-03-20T01:50:33.376Z,64.46
2019-03-20T01:54:38.262Z,64.81
2019-03-20T01:58:43.147Z,65.51
2019-03-20T02:02:48.041Z,65.49
2019-03-20T02:06:52.921Z,65.61
2019-03-20T02:10:57.807Z,67.00
2019-03-20T02:15:02.874Z,67.15
2019-03-20T02:19:08.831Z,66.93
2019-03-20T02:23:13.714Z,66.68
2019-03-20T02:27:18.590Z,66.10
2019-03-20T02:31:23.482Z,66.38
2019-03-20T02:35:28.378Z,66.41
2019-03-20T02:39:33.270Z,66.15
2019-03-20T02:43:38.167Z,65.85
2019-03-20T02:47:43.209Z,66.05
2019-03-20T02:51:48.076Z,66.21
2019-03-20T02:55:52.967Z,66.46
2019-03-20T02:59:57.862Z,65.87
2019-03-20T03:04:02.747Z,65.26
2019-03-20T03:08:07.631Z,66.11
2019-03-20T03:12:12.515Z,66.84
2019-03-20T03:16:17.408Z,67.09
2019-03-20T03:20:22.310Z,66.41
2019-03-20T03:24:27.195Z,66.70
2019-03-20T03:28:32.075Z,66.83
2019-03-20T03:32:36.967Z,66.80
2019-03-20T03:36:41.853Z,66.61
2019-03-20T03:40:46.920Z,66.68
2019-03-20T03:44:51.809Z,66.58
2019-03-20T03:48:56.698Z,65.90
2019-03-20T03:53:01.601Z,65.83
2019-03-20T03:57:06.476Z,65.94
2019-03-20T04:01:11.372Z,66.19
2019-03-20T04:05:16.547Z,66.84
2019-03-20T04:09:21.410Z,66.51
2019-03-20T04:13:26.298Z,66.33
2019-03-20T04:17:32.223Z,66.65
2019-03-20T04:21:37.124Z,66.80
2019-03-20T04:25:42.017Z,66.42
2019-03-20T04:29:46.900Z,66.54
2019-03-20T04:33:51.783Z,66.24
2019-03-20T04:37:56.674Z,65.97
2019-03-20T04:42:01.564Z,66.11
2019-03-20T04:46:06.454Z,66.26
2019-03-20T04:50:14.391Z,65.62
2019-03-20T04:54:19.317Z,66.28
2019-03-20T04:58:24.179Z,67.01
2019-03-20T05:02:30.137Z,67.63
2019-03-20T05:06:35.036Z,67.91
2019-03-20T05:10:40.991Z,68.44
2019-03-20T05:14:45.890Z,68.65
2019-03-20T05:18:50.787Z,69.02
2019-03-20T05:22:55.684Z,69.17
2019-03-20T05:27:00.581Z,68.80
2019-03-20T05:31:05.471Z,68.59
2019-03-20T05:35:11.029Z,68.62
2019-03-20T05:39:16.032Z,68.08
2019-03-20T05:43:20.887Z,67.48
2019-03-20T05:47:25.782Z,67.26
2019-03-20T05:51:30.659Z,67.69
2019-03-20T05:55:35.554Z,68.12
2019-03-20T05:59:40.459Z,67.55
2019-03-20T06:03:45.344Z,66.76
2019-03-20T06:07:50.305Z,67.54
2019-03-20T06:11:55.188Z,67.42
2019-03-20T06:16:00.084Z,67.29
2019-03-20T06:20:07.821Z,66.84
2019-03-20T06:24:12.716Z,66.97
2019-03-20T06:28:17.615Z,66.92
2019-03-20T06:32:22.495Z,67.02
2019-03-20T06:36:28.421Z,67.26
2019-03-20T06:40:33.355Z,67.73
2019-03-20T06:44:38.255Z,67.75
2019-03-20T06:48:43.152Z,67.78
2019-03-20T06:52:48.030Z,67.94
2019-03-20T06:56:52.928Z,68.55
2019-03-20T07:01:10.219Z,68.55
2019-03-20T07:05:23.737Z,68.03
2019-03-20T07:09:37.558Z,67.83
2019-03-20T07:13:42.437Z,67.44
2019-03-20T07:17:47.335Z,67.37
2019-03-20T07:21:52.248Z,67.07
2019-03-20T07:25:57.145Z,66.82
2019-03-20T07:30:02.048Z,66.46
2019-03-20T07:34:07.911Z,66.33
2019-03-20T07:38:12.869Z,66.75
2019-03-20T07:42:18.732Z,66.92
2019-03-20T07:46:23.623Z,66.03
2019-03-20T07:50:28.532Z,65.85
2019-03-20T07:54:33.439Z,65.50
2019-03-20T07:58:38.325Z,65.57
2019-03-20T08:02:43.217Z,64.74
2019-03-20T08:06:49.188Z,64.38
2019-03-20T08:10:54.087Z,64.11
2019-03-20T08:14:58.983Z,64.18
2019-03-20T08:19:03.866Z,63.53
2019-03-20T08:23:08.761Z,63.25
2019-03-20T08:27:13.660Z,62.74
2019-03-20T08:31:18.552Z,61.06
2019-03-20T08:35:23.448Z,60.16
2019-03-20T08:39:28.336Z,60.08
2019-03-20T08:43:33.228Z,58.35
2019-03-20T08:47:38.123Z,57.79
2019-03-20T08:51:43.011Z,57.23
2019-03-20T08:55:48.719Z,55.95
2019-03-20T08:59:53.613Z,54.85
2019-03-20T09:03:58.515Z,54.05
2019-03-20T09:08:03.404Z,52.93
2019-03-20T09:12:09.259Z,50.95
2019-03-20T09:16:14.148Z,50.25
2019-03-20T09:20:25.497Z,50.21
2019-03-20T09:24:30.385Z,48.46
2019-03-20T09:28:35.282Z,48.48
2019-03-20T09:32:40.168Z,47.06
2019-03-20T09:36:45.059Z,46.79
2019-03-20T09:40:49.936Z,47.15
2019-03-20T09:44:54.834Z,45.59
2019-03-20T09:48:59.724Z,46.37
2019-03-20T09:53:05.587Z,45.73
2019-03-20T09:57:10.497Z,45.54
2019-03-20T10:01:15.384Z,45.30
2019-03-20T10:05:20.392Z,45.25
2019-03-20T10:09:26.252Z,44.25
2019-03-20T10:13:31.150Z,43.69
2019-03-20T10:17:36.058Z,44.47
2019-03-20T10:21:40.948Z,44.37
2019-03-20T10:25:45.842Z,44.18
2019-03-20T10:29:50.737Z,44.43
2019-03-20T10:33:55.638Z,44.06
2019-03-20T10:38:00.543Z,43.72
2019-03-20T10:42:05.427Z,43.26
2019-03-20T10:46:10.374Z,43.20
2019-03-20T10:50:21.419Z,43.42
2019-03-20T10:54:27.557Z,43.62
2019-03-20T10:58:32.478Z,43.05
2019-03-20T11:02:37.363Z,42.65
2019-03-20T11:06:42.278Z,42.80
2019-03-20T11:10:47.250Z,42.56
2019-03-20T11:14:52.157Z,42.26
2019-03-20T11:18:57.078Z,42.71
2019-03-20T11:23:01.965Z,42.41
2019-03-20T11:27:06.866Z,41.85
2019-03-20T11:31:12.738Z,41.90
2019-03-20T11:35:17.643Z,41.00
2019-03-20T11:39:29.483Z,41.19
2019-03-20T11:43:29.145Z,42.03
2019-03-20T11:47:34.045Z,40.88
2019-03-20T11:51:38.950Z,40.72
2019-03-20T11:55:43.856Z,40.32
2019-03-20T11:59:48.842Z,40.82
2019-03-20T12:03:53.740Z,40.34
2019-03-20T12:07:58.649Z,40.28
2019-03-20T12:12:03.557Z,39.91
2019-03-20T12:16:08.470Z,40.60
2019-03-20T12:20:22.881Z,40.33
2019-03-20T12:24:27.776Z,40.10
2019-03-20T12:28:32.679Z,39.92
2019-03-20T12:32:37.588Z,39.79
2019-03-20T12:36:42.494Z,39.34
2019-03-20T12:40:47.405Z,39.48
2019-03-20T12:44:52.296Z,38.76
2019-03-20T12:48:59.691Z,39.32
2019-03-20T12:53:04.483Z,39.00
2019-03-20T12:57:09.397Z,38.82
2019-03-20T13:01:14.298Z,38.64
2019-03-20T13:05:19.631Z,38.43
2019-03-20T13:09:24.537Z,38.43
2019-03-20T13:13:29.448Z,38.53
2019-03-20T13:17:34.359Z,38.51
2019-03-20T13:21:39.266Z,38.66
2019-03-20T13:25:44.172Z,38.13
2019-03-20T13:29:49.074Z,38.33
2019-03-20T13:33:53.988Z,37.87
2019-03-20T13:37:58.879Z,37.83
2019-03-20T13:42:04.857Z,37.66
2019-03-20T13:46:09.746Z,37.59
2019-03-20T13:50:15.489Z,37.75
2019-03-20T13:54:20.393Z,37.81
2019-03-20T13:58:25.323Z,37.72
2019-03-20T14:02:30.229Z,37.70
2019-03-20T14:06:35.123Z,37.71
2019-03-20T14:10:50.418Z,37.35
2019-03-20T14:14:46.632Z,36.88
2019-03-20T14:18:51.528Z,37.22
2019-03-20T14:22:56.424Z,37.49
2019-03-20T14:27:01.322Z,37.07
2019-03-20T14:31:06.221Z,37.37
2019-03-20T14:35:11.122Z,37.05
2019-03-20T14:39:16.021Z,36.91
2019-03-20T14:43:20.922Z,36.63
2019-03-20T14:47:25.804Z,36.66
2019-03-20T14:51:30.707Z,36.45
2019-03-20T14:55:35.605Z,36.21
2019-03-20T14:59:40.509Z,35.99
2019-03-20T15:03:45.415Z,35.86
2019-03-20T15:07:50.302Z,36.39
2019-03-20T15:11:56.161Z,36.40
2019-03-20T15:16:04.103Z,35.74
2019-03-20T15:20:09.071Z,35.04
2019-03-20T15:24:13.965Z,35.92
2019-03-20T15:28:18.860Z,36.07
2019-03-20T15:32:23.761Z,35.81
2019-03-20T15:36:28.663Z,35.87
2019-03-20T15:40:33.571Z,36.79
2019-03-20T15:44:38.483Z,37.44
2019-03-20T15:48:43.379Z,38.15
2019-03-20T15:52:48.357Z,37.96
2019-03-20T15:56:53.283Z,38.01
2019-03-20T16:00:58.183Z,38.34
2019-03-20T16:05:03.097Z,38.00
2019-03-20T16:09:08.942Z,38.07
2019-03-20T16:13:14.019Z,38.28
2019-03-20T16:17:18.931Z,38.91
2019-03-20T16:21:23.872Z,38.71
2019-03-20T16:25:28.818Z,39.02
2019-03-20T16:29:33.719Z,39.37
2019-03-20T16:33:38.613Z,39.31
2019-03-20T16:37:43.646Z,39.20
2019-03-20T16:41:48.536Z,39.93
2019-03-20T16:45:53.442Z,40.02
2019-03-20T16:49:58.323Z,39.58
2019-03-20T16:54:04.201Z,39.68
2019-03-20T16:58:09.094Z,39.94
2019-03-20T17:02:14.967Z,40.45
2019-03-20T17:06:19.871Z,40.69
2019-03-20T17:10:36.093Z,40.80
2019-03-20T17:14:41.829Z,41.01
2019-03-20T17:18:46.767Z,41.44
2019-03-20T17:22:51.680Z,41.94
2019-03-20T17:26:56.584Z,41.73
2019-03-20T17:31:01.490Z,41.86
2019-03-20T17:35:08.615Z,42.15
2019-03-20T17:39:13.517Z,42.51
2019-03-20T17:43:18.565Z,42.69
2019-03-20T17:47:23.474Z,43.14
2019-03-20T17:51:28.382Z,43.62
2019-03-20T17:55:33.349Z,44.01
2019-03-20T17:59:38.263Z,44.38
2019-03-20T18:03:43.179Z,45.16
2019-03-20T18:07:48.086Z,46.23
2019-03-20T18:11:52.988Z,47.26
2019-03-20T18:15:57.948Z,48.40
2019-03-20T18:20:03.016Z,48.80
2019-03-20T18:24:07.988Z,49.52
2019-03-20T18:28:12.887Z,49.98
2019-03-20T18:32:17.785Z,50.37
2019-03-20T18:36:22.852Z,50.82
2019-03-20T18:40:28.490Z,51.45
2019-03-20T18:44:33.460Z,51.84
2019-03-20T18:48:38.351Z,52.02
2019-03-20T18:52:43.247Z,52.26
2019-03-20T18:56:48.137Z,52.38
2019-03-20T19:00:53.024Z,52.67
2019-03-20T19:04:57.933Z,52.96
2019-03-20T19:09:03.108Z,53.27
2019-03-20T19:13:09.612Z,53.31
2019-03-20T19:17:14.504Z,53.70
2019-03-20T19:21:19.389Z,53.84
2019-03-20T19:25:24.280Z,54.07
2019-03-20T19:29:29.186Z,54.94
2019-03-20T19:33:34.164Z,55.68
2019-03-20T19:37:39.054Z,56.30
2019-03-20T19:41:43.952Z,56.65
2019-03-20T19:45:48.852Z,56.58
2019-03-20T19:49:53.754Z,57.04
2019-03-20T19:53:58.647Z,57.53
2019-03-20T19:58:03.608Z,57.52
2019-03-20T20:02:08.507Z,57.66
2019-03-20T20:06:13.427Z,57.59
2019-03-20T20:10:19.070Z,57.54
2019-03-20T20:14:23.979Z,57.51
2019-03-20T20:18:28.932Z,57.57
2019-03-20T20:22:33.827Z,57.59
2019-03-20T20:26:38.728Z,57.61
2019-03-20T20:30:43.622Z,58.17
2019-03-20T20:34:48.556Z,58.65
2019-03-20T20:38:53.451Z,58.56
2019-03-20T20:42:58.348Z,58.40
2019-03-20T20:47:03.245Z,58.47
2019-03-20T20:51:08.145Z,58.88
2019-03-20T20:55:15.253Z,59.69
2019-03-20T20:59:20.145Z,60.08
2019-03-20T21:03:25.045Z,60.51
2019-03-20T21:07:29.941Z,60.57
2019-03-20T21:11:34.839Z,60.96
2019-03-20T21:15:41.592Z,62.15
2019-03-20T21:19:46.488Z,60.71
2019-03-20T21:24:25.038Z,60.96
2019-03-20T21:28:52.805Z,60.91
2019-03-20T21:33:00.755Z,60.88
2019-03-20T21:37:11.388Z,61.54
2019-03-20T21:41:19.342Z,61.20
2019-03-20T21:45:32.943Z,61.45
2019-03-20T21:49:37.850Z,61.62
2019-03-20T21:54:13.211Z,61.69
2019-03-20T21:58:23.967Z,61.50
2019-03-20T22:02:47.289Z,61.74
2019-03-20T22:07:09.941Z,62.49
2019-03-20T22:11:29.585Z,62.72
2019-03-20T22:15:55.825Z,63.32
2019-03-20T22:20:12.483Z,63.32
2019-03-20T22:24:20.436Z,63.21
2019-03-20T22:28:49.558Z,62.91
2019-03-20T22:33:20.081Z,62.27
2019-03-20T22:37:24.980Z,62.63
2019-03-20T22:41:41.884Z,63.64
2019-03-20T22:46:12.685Z,63.82
2019-03-20T22:50:26.602Z,63.42
2019-03-20T22:54:52.711Z,63.24
2019-03-20T22:58:57.608Z,63.03
2019-03-20T23:03:14.325Z,62.62
2019-03-20T23:07:19.518Z,62.48
2019-03-20T23:11:24.404Z,62.70
2019-03-20T23:15:29.306Z,62.81
2019-03-20T23:19:34.547Z,62.62
2019-03-20T23:23:40.408Z,62.88
2019-03-20T23:27:45.306Z,62.72
2019-03-20T23:31:50.194Z,62.60
2019-03-20T23:35:55.095Z,62.73
2019-03-20T23:39:59.990Z,63.06
2019-03-20T23:44:04.957Z,62.68
2019-03-20T23:48:15.732Z,62.75
2019-03-20T23:52:20.610Z,63.17
2019-03-20T23:56:27.346Z,63.53
